sensor_id;sensor_type;location;lat;lon;timestamp;pressure;altitude;pressure_sealevel;temperature;humidity
72061;BME280;59925;52.136;5.420;2023-04-27T00:00:40;102318.63;;;1.78;80.83
72061;BME280;59925;52.136;5.420;2023-04-27T00:03:07;102323.41;;;1.75;81.11
72061;BME280;59925;52.136;5.420;2023-04-27T00:05:35;102331.34;;;1.75;81.08
72061;BME280;59925;52.136;5.420;2023-04-27T00:08:02;102327.59;;;1.69;81.29
72061;BME280;59925;52.136;5.420;2023-04-27T00:10:28;102326.94;;;1.67;81.42
72061;BME280;59925;52.136;5.420;2023-04-27T00:12:55;102328.44;;;1.61;81.25
72061;BME280;59925;52.136;5.420;2023-04-27T00:15:21;102337.88;;;1.56;81.68
72061;BME280;59925;52.136;5.420;2023-04-27T00:17:48;102328.81;;;1.50;81.60
72061;BME280;59925;52.136;5.420;2023-04-27T00:20:14;102323.25;;;1.45;81.75
72061;BME280;59925;52.136;5.420;2023-04-27T00:22:41;102333.16;;;1.43;81.74
72061;BME280;59925;52.136;5.420;2023-04-27T00:25:08;102335.97;;;1.41;81.77
72061;BME280;59925;52.136;5.420;2023-04-27T00:27:34;102337.28;;;1.45;81.94
72061;BME280;59925;52.136;5.420;2023-04-27T00:30:01;102330.66;;;1.49;82.26
72061;BME280;59925;52.136;5.420;2023-04-27T00:32:27;102334.31;;;1.48;81.78
72061;BME280;59925;52.136;5.420;2023-04-27T00:34:53;102325.56;;;1.40;81.92
72061;BME280;59925;52.136;5.420;2023-04-27T00:37:20;102328.41;;;1.38;81.57
72061;BME280;59925;52.136;5.420;2023-04-27T00:39:47;102324.09;;;1.37;82.06
72061;BME280;59925;52.136;5.420;2023-04-27T00:42:13;102319.44;;;1.39;82.09
72061;BME280;59925;52.136;5.420;2023-04-27T00:44:42;102317.97;;;1.36;82.09
72061;BME280;59925;52.136;5.420;2023-04-27T00:47:09;102321.31;;;1.30;81.95
72061;BME280;59925;52.136;5.420;2023-04-27T00:49:36;102323.81;;;1.24;81.75
72061;BME280;59925;52.136;5.420;2023-04-27T00:52:03;102324.66;;;1.16;82.08
72061;BME280;59925;52.136;5.420;2023-04-27T00:54:30;102336.88;;;1.09;82.37
72061;BME280;59925;52.136;5.420;2023-04-27T00:56:56;102329.66;;;1.02;82.18
72061;BME280;59925;52.136;5.420;2023-04-27T00:59:25;102332.16;;;0.96;82.12
72061;BME280;59925;52.136;5.420;2023-04-27T01:01:53;102326.38;;;0.92;82.33
72061;BME280;59925;52.136;5.420;2023-04-27T01:04:20;102326.53;;;0.90;82.44
72061;BME280;59925;52.136;5.420;2023-04-27T01:06:47;102317.94;;;0.88;82.55
72061;BME280;59925;52.136;5.420;2023-04-27T01:09:14;102312.50;;;0.90;82.61
72061;BME280;59925;52.136;5.420;2023-04-27T01:11:47;102313.97;;;0.93;82.41
72061;BME280;59925;52.136;5.420;2023-04-27T01:14:13;102317.09;;;0.96;82.48
72061;BME280;59925;52.136;5.420;2023-04-27T01:16:40;102308.84;;;0.99;82.29
72061;BME280;59925;52.136;5.420;2023-04-27T01:19:06;102311.16;;;1.02;81.90
72061;BME280;59925;52.136;5.420;2023-04-27T01:21:34;102313.97;;;1.01;81.86
72061;BME280;59925;52.136;5.420;2023-04-27T01:24:00;102315.47;;;0.95;81.85
72061;BME280;59925;52.136;5.420;2023-04-27T01:26:26;102319.28;;;0.84;82.42
72061;BME280;59925;52.136;5.420;2023-04-27T01:28:53;102318.47;;;0.75;82.49
72061;BME280;59925;52.136;5.420;2023-04-27T01:31:19;102328.69;;;0.70;82.56
72061;BME280;59925;52.136;5.420;2023-04-27T01:33:46;102326.75;;;0.64;82.75
72061;BME280;59925;52.136;5.420;2023-04-27T01:36:12;102323.59;;;0.60;82.77
72061;BME280;59925;52.136;5.420;2023-04-27T01:38:39;102330.69;;;0.60;83.08
72061;BME280;59925;52.136;5.420;2023-04-27T01:41:06;102319.00;;;0.54;83.19
72061;BME280;59925;52.136;5.420;2023-04-27T01:43:35;102314.38;;;0.56;83.21
72061;BME280;59925;52.136;5.420;2023-04-27T01:46:09;102312.88;;;0.62;82.88
72061;BME280;59925;52.136;5.420;2023-04-27T01:48:37;102307.09;;;0.67;82.88
72061;BME280;59925;52.136;5.420;2023-04-27T01:51:04;102303.28;;;0.69;82.67
72061;BME280;59925;52.136;5.420;2023-04-27T01:53:31;102301.31;;;0.71;82.61
72061;BME280;59925;52.136;5.420;2023-04-27T01:55:57;102289.75;;;0.72;82.32
72061;BME280;59925;52.136;5.420;2023-04-27T01:58:27;102300.66;;;0.69;82.01
72061;BME280;59925;52.136;5.420;2023-04-27T02:00:53;102299.34;;;0.65;82.81
72061;BME280;59925;52.136;5.420;2023-04-27T02:03:20;102295.72;;;0.66;82.38
72061;BME280;59925;52.136;5.420;2023-04-27T02:05:47;102302.16;;;0.64;82.67
72061;BME280;59925;52.136;5.420;2023-04-27T02:08:13;102302.00;;;0.57;83.15
72061;BME280;59925;52.136;5.420;2023-04-27T02:10:40;102298.53;;;0.48;83.02
72061;BME280;59925;52.136;5.420;2023-04-27T02:13:06;102306.28;;;0.41;83.00
72061;BME280;59925;52.136;5.420;2023-04-27T02:15:33;102311.06;;;0.38;83.64
72061;BME280;59925;52.136;5.420;2023-04-27T02:18:01;102312.22;;;0.35;83.74
72061;BME280;59925;52.136;5.420;2023-04-27T02:20:29;102311.25;;;0.36;83.87
72061;BME280;59925;52.136;5.420;2023-04-27T02:22:56;102308.59;;;0.36;84.06
72061;BME280;59925;52.136;5.420;2023-04-27T02:25:23;102310.75;;;0.41;83.84
72061;BME280;59925;52.136;5.420;2023-04-27T02:27:49;102307.13;;;0.42;83.99
72061;BME280;59925;52.136;5.420;2023-04-27T02:30:16;102301.69;;;0.35;83.91
72061;BME280;59925;52.136;5.420;2023-04-27T02:32:43;102306.47;;;0.32;84.26
72061;BME280;59925;52.136;5.420;2023-04-27T02:35:10;102300.03;;;0.26;83.80
72061;BME280;59925;52.136;5.420;2023-04-27T02:37:36;102299.38;;;0.24;84.21
72061;BME280;59925;52.136;5.420;2023-04-27T02:40:03;102296.72;;;0.24;84.23
72061;BME280;59925;52.136;5.420;2023-04-27T02:42:32;102288.97;;;0.22;84.28
72061;BME280;59925;52.136;5.420;2023-04-27T02:44:59;102289.31;;;0.19;84.40
72061;BME280;59925;52.136;5.420;2023-04-27T02:47:25;102286.69;;;0.19;84.24
72061;BME280;59925;52.136;5.420;2023-04-27T02:49:52;102287.47;;;0.20;84.12
72061;BME280;59925;52.136;5.420;2023-04-27T02:52:19;102285.16;;;0.17;84.41
72061;BME280;59925;52.136;5.420;2023-04-27T02:54:45;102287.13;;;0.14;84.19
72061;BME280;59925;52.136;5.420;2023-04-27T02:57:12;102284.00;;;0.11;84.54
72061;BME280;59925;52.136;5.420;2023-04-27T02:59:38;102282.53;;;0.08;84.54
72061;BME280;59925;52.136;5.420;2023-04-27T03:02:05;102284.50;;;0.06;84.70
72061;BME280;59925;52.136;5.420;2023-04-27T03:04:31;102288.31;;;0.04;84.87
72061;BME280;59925;52.136;5.420;2023-04-27T03:06:58;102293.22;;;-0.02;84.95
72061;BME280;59925;52.136;5.420;2023-04-27T03:09:24;102292.56;;;-0.04;84.78
72061;BME280;59925;52.136;5.420;2023-04-27T03:11:51;102295.38;;;-0.05;85.10
72061;BME280;59925;52.136;5.420;2023-04-27T03:14:17;102295.38;;;-0.05;84.72
72061;BME280;59925;52.136;5.420;2023-04-27T03:16:44;102296.84;;;-0.03;84.72
72061;BME280;59925;52.136;5.420;2023-04-27T03:19:11;102304.09;;;-0.05;84.93
72061;BME280;59925;52.136;5.420;2023-04-27T03:21:38;102297.84;;;-0.12;84.89
72061;BME280;59925;52.136;5.420;2023-04-27T03:24:04;102301.78;;;-0.16;84.59
72061;BME280;59925;52.136;5.420;2023-04-27T03:26:31;102306.53;;;-0.20;84.75
72061;BME280;59925;52.136;5.420;2023-04-27T03:28:57;102311.16;;;-0.22;85.13
72061;BME280;59925;52.136;5.420;2023-04-27T03:31:24;102309.50;;;-0.23;84.93
72061;BME280;59925;52.136;5.420;2023-04-27T03:33:50;102306.84;;;-0.23;85.10
72061;BME280;59925;52.136;5.420;2023-04-27T03:36:17;102305.06;;;-0.22;85.30
72061;BME280;59925;52.136;5.420;2023-04-27T03:38:43;102308.50;;;-0.22;84.99
72061;BME280;59925;52.136;5.420;2023-04-27T03:41:09;102306.53;;;-0.20;84.82
72061;BME280;59925;52.136;5.420;2023-04-27T03:43:36;102305.56;;;-0.19;84.93
72061;BME280;59925;52.136;5.420;2023-04-27T03:46:03;102299.31;;;-0.18;85.42
72061;BME280;59925;52.136;5.420;2023-04-27T03:48:29;102297.34;;;-0.16;85.04
72061;BME280;59925;52.136;5.420;2023-04-27T03:50:56;102302.63;;;-0.16;85.08
72061;BME280;59925;52.136;5.420;2023-04-27T03:53:22;102312.31;;;-0.16;84.36
72061;BME280;59925;52.136;5.420;2023-04-27T03:55:49;102305.25;;;-0.16;84.84
72061;BME280;59925;52.136;5.420;2023-04-27T03:58:15;102307.72;;;-0.14;84.48
72061;BME280;59925;52.136;5.420;2023-04-27T04:00:43;102311.66;;;-0.18;84.75
72061;BME280;59925;52.136;5.420;2023-04-27T04:03:09;102307.84;;;-0.24;84.48
72061;BME280;59925;52.136;5.420;2023-04-27T04:05:36;102304.22;;;-0.31;84.67
72061;BME280;59925;52.136;5.420;2023-04-27T04:08:02;102306.66;;;-0.38;85.15
72061;BME280;59925;52.136;5.420;2023-04-27T04:10:29;102309.44;;;-0.39;85.23
72061;BME280;59925;52.136;5.420;2023-04-27T04:12:55;102307.16;;;-0.42;85.55
72061;BME280;59925;52.136;5.420;2023-04-27T04:15:22;102307.47;;;-0.45;85.45
72061;BME280;59925;52.136;5.420;2023-04-27T04:17:48;102306.78;;;-0.48;85.39
72061;BME280;59925;52.136;5.420;2023-04-27T04:20:15;102312.38;;;-0.51;85.31
72061;BME280;59925;52.136;5.420;2023-04-27T04:22:41;102307.28;;;-0.52;85.25
72061;BME280;59925;52.136;5.420;2023-04-27T04:25:09;102309.91;;;-0.52;85.69
72061;BME280;59925;52.136;5.420;2023-04-27T04:27:35;102320.94;;;-0.49;85.62
72061;BME280;59925;52.136;5.420;2023-04-27T04:30:04;102317.16;;;-0.46;85.84
72061;BME280;59925;52.136;5.420;2023-04-27T04:32:31;102323.44;;;-0.47;85.59
72061;BME280;59925;52.136;5.420;2023-04-27T04:34:58;102327.88;;;-0.48;85.42
72061;BME280;59925;52.136;5.420;2023-04-27T04:37:26;102328.53;;;-0.45;85.71
72061;BME280;59925;52.136;5.420;2023-04-27T04:39:53;102329.22;;;-0.43;85.60
72061;BME280;59925;52.136;5.420;2023-04-27T04:42:20;102335.16;;;-0.41;85.48
72061;BME280;59925;52.136;5.420;2023-04-27T04:44:46;102333.50;;;-0.42;85.48
72061;BME280;59925;52.136;5.420;2023-04-27T04:47:13;102346.19;;;-0.38;85.36
72061;BME280;59925;52.136;5.420;2023-04-27T04:49:39;102339.94;;;-0.37;85.80
72061;BME280;59925;52.136;5.420;2023-04-27T04:52:05;102342.09;;;-0.32;85.50
72061;BME280;59925;52.136;5.420;2023-04-27T04:54:32;102345.41;;;-0.30;85.76
72061;BME280;59925;52.136;5.420;2023-04-27T04:56:58;102345.72;;;-0.25;85.71
72061;BME280;59925;52.136;5.420;2023-04-27T04:59:26;102342.78;;;-0.22;86.12
72061;BME280;59925;52.136;5.420;2023-04-27T05:01:52;102337.69;;;-0.15;86.13
72061;BME280;59925;52.136;5.420;2023-04-27T05:04:22;102340.38;;;-0.07;85.87
72061;BME280;59925;52.136;5.420;2023-04-27T05:06:49;102337.91;;;0.00;85.93
72061;BME280;59925;52.136;5.420;2023-04-27T05:09:15;102331.66;;;0.09;85.95
72061;BME280;59925;52.136;5.420;2023-04-27T05:11:42;102337.91;;;0.17;85.84
72061;BME280;59925;52.136;5.420;2023-04-27T05:14:08;102328.53;;;0.22;85.28
72061;BME280;59925;52.136;5.420;2023-04-27T05:16:35;102323.41;;;0.29;85.83
72061;BME280;59925;52.136;5.420;2023-04-27T05:19:01;102335.13;;;0.35;85.65
72061;BME280;59925;52.136;5.420;2023-04-27T05:21:28;102331.84;;;0.41;85.80
72061;BME280;59925;52.136;5.420;2023-04-27T05:23:54;102333.81;;;0.47;85.70
72061;BME280;59925;52.136;5.420;2023-04-27T05:26:21;102332.00;;;0.56;85.41
72061;BME280;59925;52.136;5.420;2023-04-27T05:28:47;102330.38;;;0.63;85.42
72061;BME280;59925;52.136;5.420;2023-04-27T05:31:14;102340.59;;;0.74;85.43
72061;BME280;59925;52.136;5.420;2023-04-27T05:33:41;102340.72;;;1.54;87.33
72061;BME280;59925;52.136;5.420;2023-04-27T05:36:07;102332.66;;;3.62;86.41
72061;BME280;59925;52.136;5.420;2023-04-27T05:38:35;102332.28;;;5.44;81.98
72061;BME280;59925;52.136;5.420;2023-04-27T05:41:05;102331.53;;;6.52;77.37
72061;BME280;59925;52.136;5.420;2023-04-27T05:43:32;102329.22;;;7.03;73.94
72061;BME280;59925;52.136;5.420;2023-04-27T05:46:00;102334.41;;;7.50;71.33
72061;BME280;59925;52.136;5.420;2023-04-27T05:48:26;102333.16;;;7.98;69.36
72061;BME280;59925;52.136;5.420;2023-04-27T05:51:00;102331.28;;;8.05;67.46
72061;BME280;59925;52.136;5.420;2023-04-27T05:53:28;102331.00;;;8.71;66.91
72061;BME280;59925;52.136;5.420;2023-04-27T05:55:55;102326.88;;;9.31;65.33
72061;BME280;59925;52.136;5.420;2023-04-27T05:58:24;102330.22;;;9.75;63.51
72061;BME280;59925;52.136;5.420;2023-04-27T06:00:50;102328.19;;;10.32;62.47
72061;BME280;59925;52.136;5.420;2023-04-27T06:03:17;102329.25;;;10.66;61.08
72061;BME280;59925;52.136;5.420;2023-04-27T06:05:45;102331.13;;;11.01;60.32
72061;BME280;59925;52.136;5.420;2023-04-27T06:08:11;102330.66;;;10.81;58.68
72061;BME280;59925;52.136;5.420;2023-04-27T06:10:38;102334.19;;;10.81;58.91
72061;BME280;59925;52.136;5.420;2023-04-27T06:13:04;102336.53;;;10.23;57.79
72061;BME280;59925;52.136;5.420;2023-04-27T06:15:31;102327.22;;;9.53;58.24
72061;BME280;59925;52.136;5.420;2023-04-27T06:17:57;102336.34;;;8.71;59.04
72061;BME280;59925;52.136;5.420;2023-04-27T06:20:24;102337.06;;;7.57;61.20
72061;BME280;59925;52.136;5.420;2023-04-27T06:22:51;102341.16;;;6.94;63.69
72061;BME280;59925;52.136;5.420;2023-04-27T06:25:17;102338.50;;;6.33;65.01
72061;BME280;59925;52.136;5.420;2023-04-27T06:27:43;102339.66;;;5.97;66.51
72061;BME280;59925;52.136;5.420;2023-04-27T06:30:10;102343.50;;;5.74;67.88
72061;BME280;59925;52.136;5.420;2023-04-27T06:32:37;102342.66;;;5.80;68.57
72061;BME280;59925;52.136;5.420;2023-04-27T06:35:04;102343.13;;;5.97;69.35
72061;BME280;59925;52.136;5.420;2023-04-27T06:37:30;102342.53;;;6.02;68.98
72061;BME280;59925;52.136;5.420;2023-04-27T06:39:58;102345.75;;;5.84;69.08
72061;BME280;59925;52.136;5.420;2023-04-27T06:42:24;102345.19;;;5.95;70.21
72061;BME280;59925;52.136;5.420;2023-04-27T06:44:54;102339.66;;;5.97;70.38
72061;BME280;59925;52.136;5.420;2023-04-27T06:47:24;102343.78;;;6.00;70.29
72061;BME280;59925;52.136;5.420;2023-04-27T06:49:50;102345.84;;;6.18;70.65
72061;BME280;59925;52.136;5.420;2023-04-27T06:52:17;102344.66;;;6.34;70.58
72061;BME280;59925;52.136;5.420;2023-04-27T06:54:43;102343.22;;;6.44;70.54
72061;BME280;59925;52.136;5.420;2023-04-27T06:57:10;102341.00;;;6.41;70.45
72061;BME280;59925;52.136;5.420;2023-04-27T06:59:36;102340.16;;;6.61;70.77
72061;BME280;59925;52.136;5.420;2023-04-27T07:02:03;102341.78;;;6.69;69.23
72061;BME280;59925;52.136;5.420;2023-04-27T07:04:29;102338.34;;;6.62;69.29
72061;BME280;59925;52.136;5.420;2023-04-27T07:06:56;102338.28;;;6.68;69.43
72061;BME280;59925;52.136;5.420;2023-04-27T07:09:22;102348.94;;;6.82;68.75
72061;BME280;59925;52.136;5.420;2023-04-27T07:11:53;102335.84;;;6.80;67.82
72061;BME280;59925;52.136;5.420;2023-04-27T07:14:20;102343.03;;;6.86;67.90
72061;BME280;59925;52.136;5.420;2023-04-27T07:16:47;102342.38;;;6.98;67.88
72061;BME280;59925;52.136;5.420;2023-04-27T07:19:13;102342.56;;;7.03;66.98
72061;BME280;59925;52.136;5.420;2023-04-27T07:21:40;102349.50;;;7.17;66.46
72061;BME280;59925;52.136;5.420;2023-04-27T07:24:07;102344.38;;;7.23;66.36
72061;BME280;59925;52.136;5.420;2023-04-27T07:26:33;102349.28;;;7.32;66.42
72061;BME280;59925;52.136;5.420;2023-04-27T07:29:00;102346.53;;;7.53;66.22
72061;BME280;59925;52.136;5.420;2023-04-27T07:31:33;102346.41;;;7.79;65.57
72061;BME280;59925;52.136;5.420;2023-04-27T07:34:00;102336.47;;;7.93;65.31
72061;BME280;59925;52.136;5.420;2023-04-27T07:36:26;102340.47;;;8.09;64.51
72061;BME280;59925;52.136;5.420;2023-04-27T07:38:53;102334.63;;;8.26;64.23
72061;BME280;59925;52.136;5.420;2023-04-27T07:41:21;102335.56;;;8.38;62.84
72061;BME280;59925;52.136;5.420;2023-04-27T07:43:48;102328.72;;;8.49;62.22
72061;BME280;59925;52.136;5.420;2023-04-27T07:46:17;102333.88;;;8.69;61.95
72061;BME280;59925;52.136;5.420;2023-04-27T07:48:44;102332.56;;;8.79;61.62
72061;BME280;59925;52.136;5.420;2023-04-27T07:51:10;102337.91;;;8.79;59.31
72061;BME280;59925;52.136;5.420;2023-04-27T07:53:41;102335.84;;;8.81;59.49
72061;BME280;59925;52.136;5.420;2023-04-27T07:56:07;102330.66;;;8.86;58.09
72061;BME280;59925;52.136;5.420;2023-04-27T07:58:35;102338.16;;;8.96;57.49
72061;BME280;59925;52.136;5.420;2023-04-27T08:01:03;102338.69;;;8.86;56.62
72061;BME280;59925;52.136;5.420;2023-04-27T08:03:29;102332.50;;;8.85;56.62
72061;BME280;59925;52.136;5.420;2023-04-27T08:05:56;102332.47;;;9.11;58.16
72061;BME280;59925;52.136;5.420;2023-04-27T08:08:23;102330.81;;;9.28;57.67
72061;BME280;59925;52.136;5.420;2023-04-27T08:10:50;102333.91;;;9.44;57.28
72061;BME280;59925;52.136;5.420;2023-04-27T08:13:16;102333.63;;;9.52;57.43
72061;BME280;59925;52.136;5.420;2023-04-27T08:15:43;102335.75;;;9.62;56.61
72061;BME280;59925;52.136;5.420;2023-04-27T08:18:09;102333.53;;;9.89;56.56
72061;BME280;59925;52.136;5.420;2023-04-27T08:20:36;102339.75;;;10.02;55.70
72061;BME280;59925;52.136;5.420;2023-04-27T08:23:02;102340.44;;;9.97;54.58
72061;BME280;59925;52.136;5.420;2023-04-27T08:25:28;102335.78;;;9.92;53.97
72061;BME280;59925;52.136;5.420;2023-04-27T08:27:55;102331.94;;;10.00;52.29
72061;BME280;59925;52.136;5.420;2023-04-27T08:30:22;102334.69;;;9.81;52.90
72061;BME280;59925;52.136;5.420;2023-04-27T08:32:48;102339.31;;;10.05;52.56
72061;BME280;59925;52.136;5.420;2023-04-27T08:35:15;102335.16;;;10.33;53.24
72061;BME280;59925;52.136;5.420;2023-04-27T08:37:41;102327.34;;;10.31;52.45
72061;BME280;59925;52.136;5.420;2023-04-27T08:40:09;102329.56;;;10.34;51.64
72061;BME280;59925;52.136;5.420;2023-04-27T08:42:36;102327.22;;;10.26;50.94
72061;BME280;59925;52.136;5.420;2023-04-27T08:45:05;102326.38;;;10.44;50.56
72061;BME280;59925;52.136;5.420;2023-04-27T08:47:32;102328.69;;;10.52;51.65
72061;BME280;59925;52.136;5.420;2023-04-27T08:50:10;102329.72;;;10.51;52.28
72061;BME280;59925;52.136;5.420;2023-04-27T08:52:37;102325.25;;;10.33;50.02
72061;BME280;59925;52.136;5.420;2023-04-27T08:55:03;102329.88;;;10.56;50.80
72061;BME280;59925;52.136;5.420;2023-04-27T08:57:30;102322.25;;;10.65;49.47
72061;BME280;59925;52.136;5.420;2023-04-27T08:59:57;102326.72;;;10.83;49.32
72061;BME280;59925;52.136;5.420;2023-04-27T09:02:25;102328.56;;;10.95;48.99
72061;BME280;59925;52.136;5.420;2023-04-27T09:04:55;102335.91;;;11.11;49.17
72061;BME280;59925;52.136;5.420;2023-04-27T09:07:22;102326.03;;;11.41;48.37
72061;BME280;59925;52.136;5.420;2023-04-27T09:09:49;102328.47;;;11.42;48.45
72061;BME280;59925;52.136;5.420;2023-04-27T09:12:20;102332.09;;;11.36;48.66
72061;BME280;59925;52.136;5.420;2023-04-27T09:17:25;102328.06;;;11.79;48.40
72061;BME280;59925;52.136;5.420;2023-04-27T09:20:06;102318.44;;;11.95;47.71
72061;BME280;59925;52.136;5.420;2023-04-27T09:22:44;102313.50;;;11.75;45.65
72061;BME280;59925;52.136;5.420;2023-04-27T09:25:26;102319.69;;;11.76;47.08
72061;BME280;59925;52.136;5.420;2023-04-27T09:27:54;102308.94;;;11.76;48.34
72061;BME280;59925;52.136;5.420;2023-04-27T09:30:20;102311.41;;;12.23;48.56
72061;BME280;59925;52.136;5.420;2023-04-27T09:32:55;102306.34;;;12.27;46.21
72061;BME280;59925;52.136;5.420;2023-04-27T09:35:24;102300.38;;;12.25;45.67
72061;BME280;59925;52.136;5.420;2023-04-27T09:37:52;102306.75;;;12.36;46.35
72061;BME280;59925;52.136;5.420;2023-04-27T09:40:22;102298.19;;;12.56;45.23
72061;BME280;59925;52.136;5.420;2023-04-27T09:42:54;102301.53;;;12.85;45.78
72061;BME280;59925;52.136;5.420;2023-04-27T09:45:23;102302.22;;;12.98;45.30
72061;BME280;59925;52.136;5.420;2023-04-27T09:47:49;102295.66;;;13.11;44.90
72061;BME280;59925;52.136;5.420;2023-04-27T09:50:16;102299.47;;;13.15;44.92
72061;BME280;59925;52.136;5.420;2023-04-27T09:52:47;102299.47;;;13.37;43.98
72061;BME280;59925;52.136;5.420;2023-04-27T09:55:17;102296.72;;;13.54;42.98
72061;BME280;59925;52.136;5.420;2023-04-27T09:58:08;102292.56;;;13.24;43.20
72061;BME280;59925;52.136;5.420;2023-04-27T10:08:43;102296.69;;;13.32;43.95
72061;BME280;59925;52.136;5.420;2023-04-27T10:11:15;102288.38;;;13.33;43.40
72061;BME280;59925;52.136;5.420;2023-04-27T10:13:51;102294.84;;;13.55;43.11
72061;BME280;59925;52.136;5.420;2023-04-27T10:16:20;102296.59;;;13.71;43.74
72061;BME280;59925;52.136;5.420;2023-04-27T10:18:53;102297.16;;;13.46;41.45
72061;BME280;59925;52.136;5.420;2023-04-27T10:21:20;102297.47;;;13.49;42.70
72061;BME280;59925;52.136;5.420;2023-04-27T10:23:48;102295.94;;;13.86;41.59
72061;BME280;59925;52.136;5.420;2023-04-27T10:26:26;102298.84;;;13.79;41.03
72061;BME280;59925;52.136;5.420;2023-04-27T10:29:07;102282.91;;;14.10;42.36
72061;BME280;59925;52.136;5.420;2023-04-27T10:31:34;102286.22;;;14.55;41.84
72061;BME280;59925;52.136;5.420;2023-04-27T10:34:06;102280.19;;;14.91;42.40
72061;BME280;59925;52.136;5.420;2023-04-27T10:36:35;102284.03;;;15.06;42.14
72061;BME280;59925;52.136;5.420;2023-04-27T10:39:02;102284.31;;;15.04;41.87
72061;BME280;59925;52.136;5.420;2023-04-27T10:41:34;102282.66;;;14.93;40.30
72061;BME280;59925;52.136;5.420;2023-04-27T10:44:16;102281.56;;;14.46;39.25
72061;BME280;59925;52.136;5.420;2023-04-27T10:46:50;102285.09;;;14.14;38.99
72061;BME280;59925;52.136;5.420;2023-04-27T10:49:17;102280.97;;;14.01;40.19
72061;BME280;59925;52.136;5.420;2023-04-27T10:51:44;102283.25;;;14.19;41.07
72061;BME280;59925;52.136;5.420;2023-04-27T10:54:12;102270.00;;;14.13;40.92
72061;BME280;59925;52.136;5.420;2023-04-27T10:56:39;102279.09;;;14.39;40.51
72061;BME280;59925;52.136;5.420;2023-04-27T10:59:06;102278.81;;;14.78;40.65
72061;BME280;59925;52.136;5.420;2023-04-27T11:01:34;102267.72;;;14.75;40.15
72061;BME280;59925;52.136;5.420;2023-04-27T11:04:01;102266.66;;;14.81;39.96
72061;BME280;59925;52.136;5.420;2023-04-27T11:06:29;102269.75;;;15.05;40.54
72061;BME280;59925;52.136;5.420;2023-04-27T11:08:59;102272.00;;;15.44;39.27
72061;BME280;59925;52.136;5.420;2023-04-27T11:11:26;102263.59;;;15.25;38.47
72061;BME280;59925;52.136;5.420;2023-04-27T11:13:53;102264.63;;;15.19;38.21
72061;BME280;59925;52.136;5.420;2023-04-27T11:16:21;102257.88;;;15.06;37.91
72061;BME280;59925;52.136;5.420;2023-04-27T11:18:48;102243.84;;;15.14;38.20
72061;BME280;59925;52.136;5.420;2023-04-27T11:21:16;102246.34;;;15.52;39.24
72061;BME280;59925;52.136;5.420;2023-04-27T11:23:43;102230.97;;;15.89;39.04
72061;BME280;59925;52.136;5.420;2023-04-27T11:26:13;102236.09;;;15.85;38.26
72061;BME280;59925;52.136;5.420;2023-04-27T11:31:37;102235.53;;;16.09;37.37
72061;BME280;59925;52.136;5.420;2023-04-27T11:34:08;102227.72;;;15.97;36.95
72061;BME280;59925;52.136;5.420;2023-04-27T11:36:35;102225.25;;;16.11;36.71
72061;BME280;59925;52.136;5.420;2023-04-27T11:39:03;102223.91;;;15.77;35.80
72061;BME280;59925;52.136;5.420;2023-04-27T11:41:33;102225.81;;;15.72;36.30
72061;BME280;59925;52.136;5.420;2023-04-27T11:44:17;102228.50;;;15.51;35.89
72061;BME280;59925;52.136;5.420;2023-04-27T11:46:44;102220.63;;;15.24;36.44
72061;BME280;59925;52.136;5.420;2023-04-27T11:49:12;102213.63;;;15.43;36.84
72061;BME280;59925;52.136;5.420;2023-04-27T11:51:40;102226.31;;;15.38;36.15
72061;BME280;59925;52.136;5.420;2023-04-27T11:54:10;102216.84;;;15.20;36.74
72061;BME280;59925;52.136;5.420;2023-04-27T11:56:38;102226.34;;;15.48;36.44
72061;BME280;59925;52.136;5.420;2023-04-27T11:59:19;102223.66;;;15.74;36.42
72061;BME280;59925;52.136;5.420;2023-04-27T12:01:46;102226.13;;;15.86;35.87
72061;BME280;59925;52.136;5.420;2023-04-27T12:04:13;102210.69;;;15.97;36.67
72061;BME280;59925;52.136;5.420;2023-04-27T12:06:40;102212.25;;;16.29;36.26
72061;BME280;59925;52.136;5.420;2023-04-27T12:09:07;102204.06;;;16.54;35.92
72061;BME280;59925;52.136;5.420;2023-04-27T12:11:34;102208.84;;;16.73;35.77
72061;BME280;59925;52.136;5.420;2023-04-27T12:14:01;102208.50;;;16.85;35.21
72061;BME280;59925;52.136;5.420;2023-04-27T12:16:27;102210.06;;;17.07;34.32
72061;BME280;59925;52.136;5.420;2023-04-27T12:18:54;102205.44;;;17.12;34.24
72061;BME280;59925;52.136;5.420;2023-04-27T12:21:20;102207.44;;;17.36;34.51
72061;BME280;59925;52.136;5.420;2023-04-27T12:23:47;102200.94;;;17.37;34.87
72061;BME280;59925;52.136;5.420;2023-04-27T12:26:14;102205.31;;;17.62;34.20
72061;BME280;59925;52.136;5.420;2023-04-27T12:28:40;102192.03;;;17.96;34.38
72061;BME280;59925;52.136;5.420;2023-04-27T12:31:07;102193.47;;;17.83;33.01
72061;BME280;59925;52.136;5.420;2023-04-27T12:33:33;102195.66;;;17.51;33.49
72061;BME280;59925;52.136;5.420;2023-04-27T12:36:00;102194.66;;;17.42;33.18
72061;BME280;59925;52.136;5.420;2023-04-27T12:38:27;102186.19;;;17.83;35.31
72061;BME280;59925;52.136;5.420;2023-04-27T12:40:54;102184.09;;;18.04;34.21
72061;BME280;59925;52.136;5.420;2023-04-27T12:43:21;102179.34;;;17.86;32.73
72061;BME280;59925;52.136;5.420;2023-04-27T12:45:47;102186.50;;;17.76;33.57
72061;BME280;59925;52.136;5.420;2023-04-27T12:48:14;102177.94;;;17.93;33.93
72061;BME280;59925;52.136;5.420;2023-04-27T12:50:43;102175.25;;;17.88;32.37
72061;BME280;59925;52.136;5.420;2023-04-27T12:53:10;102167.78;;;17.75;32.97
72061;BME280;59925;52.136;5.420;2023-04-27T12:55:36;102171.22;;;17.86;32.48
72061;BME280;59925;52.136;5.420;2023-04-27T12:58:03;102175.44;;;17.73;32.61
72061;BME280;59925;52.136;5.420;2023-04-27T13:00:30;102173.41;;;17.84;32.21
72061;BME280;59925;52.136;5.420;2023-04-27T13:02:56;102171.94;;;17.97;31.84
72061;BME280;59925;52.136;5.420;2023-04-27T13:05:24;102162.22;;;17.90;32.26
72061;BME280;59925;52.136;5.420;2023-04-27T13:07:51;102165.59;;;18.31;33.49
72061;BME280;59925;52.136;5.420;2023-04-27T13:10:18;102164.00;;;18.30;32.19